Time;durP1;ratioP1;P1;durP2;ratioP2;P2;SDS_P1;SDS_P2;PMS_P1;PMS_P2;Temp;Humidity;BMP_temperature;BMP_pressure;BME280_temperature;BME280_humidity;BME280_pressure;Samples;Min_cycle;Max_cycle;Signal;HPM_P1;HPM_P2
2022/08/24 00:02:22;;;;;;;34.40;25.40;;;19.20;99.90;;;;;;5033945;28;20064;-72
2022/08/24 00:04:49;;;;;;;31.52;25.10;;;19.20;99.90;;;;;;5020148;28;20056;-71
2022/08/24 00:07:15;;;;;;;28.98;24.58;;;19.20;99.90;;;;;;5021162;28;20405;-72
2022/08/24 00:09:41;;;;;;;28.98;23.80;;;19.10;99.90;;;;;;5017344;28;20414;-71
2022/08/24 00:12:09;;;;;;;29.55;26.35;;;19.10;99.90;;;;;;5035356;28;20045;-71
2022/08/24 00:14:34;;;;;;;30.67;25.45;;;19.10;99.90;;;;;;5019459;28;20060;-71
2022/08/24 00:17:00;;;;;;;26.17;23.42;;;19.10;99.90;;;;;;5023444;28;20049;-71
2022/08/24 00:19:27;;;;;;;26.08;22.98;;;18.90;99.90;;;;;;5039713;28;20037;-71
2022/08/24 00:21:53;;;;;;;26.35;22.58;;;18.90;99.90;;;;;;5036030;28;20408;-71
2022/08/24 00:24:19;;;;;;;23.27;20.95;;;18.60;99.90;;;;;;5035910;28;20095;-71
2022/08/24 00:26:45;;;;;;;22.38;20.08;;;18.30;99.90;;;;;;5000297;28;20053;-70
2022/08/24 00:29:13;;;;;;;20.90;18.70;;;18.10;99.90;;;;;;5037685;28;20041;-70
2022/08/24 00:31:39;;;;;;;20.35;18.35;;;18.00;99.90;;;;;;5033825;28;20049;-71
2022/08/24 00:34:05;;;;;;;20.58;18.70;;;17.80;99.90;;;;;;5035899;28;20380;-71
2022/08/24 00:36:31;;;;;;;20.67;18.67;;;17.80;99.90;;;;;;5001247;28;20132;-71
2022/08/24 00:38:57;;;;;;;20.55;18.45;;;17.70;99.90;;;;;;5036175;28;20080;-71
2022/08/24 00:41:23;;;;;;;17.58;15.98;;;17.60;99.90;;;;;;5017449;28;20084;-71
2022/08/24 00:43:58;;;;;;;19.60;17.70;;;17.60;99.90;;;;;;5038054;28;20080;-71
2022/08/24 00:46:54;;;;;;;19.90;17.90;;;17.50;99.90;;;;;;5007404;28;20111;-71
2022/08/24 00:49:55;;;;;;;18.33;16.48;;;17.40;99.90;;;;;;5037091;28;20060;-71
2022/08/24 00:52:26;;;;;;;18.88;17.15;;;17.40;99.90;;;;;;5032854;28;20524;-71
2022/08/24 00:55:03;;;;;;;19.90;18.02;;;17.30;99.90;;;;;;5038828;28;20392;-71
2022/08/24 00:57:33;;;;;;;20.02;18.08;;;17.30;99.90;;;;;;5023025;28;20047;-71
2022/08/24 01:00:04;;;;;;;21.38;19.27;;;17.30;99.90;;;;;;5038662;28;20041;-71
2022/08/24 01:02:33;;;;;;;23.40;20.92;;;17.30;99.90;;;;;;5020741;28;20500;-71
2022/08/24 01:05:03;;;;;;;21.70;19.48;;;17.30;99.90;;;;;;5039908;28;20055;-71
2022/08/24 01:07:30;;;;;;;19.77;17.88;;;17.30;99.90;;;;;;5005734;28;20048;-71
2022/08/24 01:09:59;;;;;;;20.23;18.23;;;17.30;99.90;;;;;;5033142;28;20125;-70
2022/08/24 01:12:26;;;;;;;21.15;18.95;;;17.40;99.90;;;;;;5036356;28;20037;-71
2022/08/24 01:14:54;;;;;;;23.25;20.77;;;17.30;99.90;;;;;;5035608;28;20716;-71
2022/08/24 01:20:05;;;;;;;29.08;25.98;;;17.40;99.90;;;;;;5039909;28;20135;-71
2022/08/24 01:23:11;;;;;;;28.85;25.77;;;17.40;99.90;;;;;;5016588;28;20076;-71
2022/08/24 01:25:41;;;;;;;34.88;28.33;;;17.40;99.90;;;;;;5017130;28;20045;-71
2022/08/24 01:28:12;;;;;;;30.17;26.98;;;17.40;99.90;;;;;;5023427;28;20061;-71
2022/08/24 01:30:38;;;;;;;;;;;17.40;99.90;;;;;;5019800;28;20106;-71
2022/08/24 01:33:06;;;;;;;32.83;29.17;;;17.50;99.90;;;;;;5035652;28;19925;-71
2022/08/24 01:35:34;;;;;;;35.00;29.33;;;17.50;99.90;;;;;;5039960;28;20044;-71
2022/08/24 01:38:03;;;;;;;35.72;31.52;;;17.60;99.90;;;;;;5007020;28;20044;-71
2022/08/24 01:40:49;;;;;;;34.20;30.38;;;17.60;99.90;;;;;;5001655;28;20435;-71
2022/08/24 01:43:16;;;;;;;28.05;25.15;;;17.60;99.90;;;;;;5035781;28;20519;-71
2022/08/24 01:45:42;;;;;;;26.13;23.38;;;17.50;99.90;;;;;;5036679;28;20120;-71
2022/08/24 01:48:08;;;;;;;27.80;24.90;;;17.50;99.90;;;;;;5019212;28;20222;-71
2022/08/24 01:50:34;;;;;;;26.83;24.00;;;17.50;99.90;;;;;;5017128;28;20136;-71
2022/08/24 01:53:03;;;;;;;27.20;24.20;;;17.50;99.90;;;;;;5039625;28;20044;-71
2022/08/24 01:55:29;;;;;;;29.02;24.85;;;17.50;99.90;;;;;;5035919;28;20052;-71
2022/08/24 01:57:55;;;;;;;28.42;25.48;;;17.50;99.90;;;;;;5018123;28;20045;-71
2022/08/24 02:00:21;;;;;;;26.95;24.20;;;17.50;99.90;;;;;;5039292;28;20167;-71
2022/08/24 02:02:46;;;;;;;26.10;23.38;;;17.40;99.90;;;;;;5036729;28;20409;-71
2022/08/24 02:05:14;;;;;;;28.45;25.45;;;17.40;99.90;;;;;;5039080;28;20613;-71
2022/08/24 02:07:40;;;;;;;29.27;25.55;;;17.40;99.90;;;;;;5019069;28;20054;-71
2022/08/24 02:10:08;;;;;;;29.83;25.92;;;17.40;99.90;;;;;;5039119;28;20492;-71
2022/08/24 02:12:36;;;;;;;31.60;28.27;;;17.40;99.90;;;;;;5020050;28;20060;-71
2022/08/24 02:15:04;;;;;;;29.85;26.60;;;17.40;99.90;;;;;;5024846;28;20064;-71
2022/08/24 02:17:29;;;;;;;30.58;25.48;;;17.40;99.90;;;;;;5003458;28;20175;-71
2022/08/24 02:19:55;;;;;;;24.00;21.60;;;17.40;99.90;;;;;;5042741;28;20135;-71
2022/08/24 02:22:21;;;;;;;26.58;22.23;;;17.30;99.90;;;;;;5015628;28;20575;-70
2022/08/24 02:24:46;;;;;;;20.08;17.98;;;17.30;99.90;;;;;;5019473;28;20045;-71
2022/08/24 02:27:13;;;;;;;19.17;17.38;;;17.20;99.90;;;;;;5002244;28;20048;-70
2022/08/24 02:29:38;;;;;;;19.45;17.42;;;17.20;99.90;;;;;;5041136;28;20059;-71
2022/08/24 02:32:06;;;;;;;17.38;15.68;;;17.20;99.90;;;;;;5017514;28;20128;-70
2022/08/24 02:34:31;;;;;;;16.35;14.75;;;17.10;99.90;;;;;;5034215;28;20056;-71
2022/08/24 02:36:57;;;;;;;15.68;14.18;;;17.10;99.90;;;;;;5021837;28;20037;-71
2022/08/24 02:39:22;;;;;;;15.90;14.27;;;17.00;99.90;;;;;;5040314;28;20132;-71
2022/08/24 02:41:50;;;;;;;13.45;12.15;;;17.00;99.90;;;;;;5035780;28;20147;-71
2022/08/24 02:44:16;;;;;;;17.77;15.98;;;17.00;99.90;;;;;;5017330;28;20052;-71
2022/08/24 02:46:42;;;;;;;16.35;14.65;;;17.00;99.90;;;;;;5000433;28;20048;-72
2022/08/24 02:49:08;;;;;;;16.52;14.93;;;16.90;99.90;;;;;;5019704;28;20401;-71
2022/08/24 02:51:34;;;;;;;15.93;14.43;;;16.90;99.90;;;;;;5018560;28;20091;-71
2022/08/24 02:54:01;;;;;;;13.57;12.38;;;16.90;99.90;;;;;;5017913;28;20045;-71
2022/08/24 02:56:31;;;;;;;14.27;12.43;;;16.90;99.90;;;;;;5005490;28;20057;-70
2022/08/24 02:58:58;;;;;;;12.52;11.35;;;16.90;99.90;;;;;;5037725;28;20423;-71
2022/08/24 03:01:25;;;;;;;13.63;12.38;;;16.90;99.90;;;;;;5039576;28;20144;-71
2022/08/24 03:03:51;;;;;;;11.60;10.50;;;16.80;99.90;;;;;;5018298;28;20045;-70
2022/08/24 03:06:17;;;;;;;11.23;10.23;;;16.70;99.90;;;;;;5029491;28;20045;-71
2022/08/24 03:08:44;;;;;;;10.68;9.80;;;16.70;99.90;;;;;;5032704;28;20059;-71
2022/08/24 03:11:11;;;;;;;11.75;10.68;;;16.60;99.90;;;;;;5036073;28;20083;-71
2022/08/24 03:13:37;;;;;;;11.20;10.23;;;16.50;99.90;;;;;;5034110;28;20045;-71
2022/08/24 03:16:03;;;;;;;11.98;10.88;;;16.50;99.90;;;;;;5035993;28;20123;-70
2022/08/24 03:18:29;;;;;;;12.93;11.82;;;16.40;99.90;;;;;;5019880;28;20045;-71
2022/08/24 03:20:57;;;;;;;11.48;10.45;;;16.30;99.90;;;;;;5034639;28;20051;-71
2022/08/24 03:23:23;;;;;;;13.30;12.00;;;16.30;99.90;;;;;;5035241;28;20092;-71
2022/08/24 03:25:52;;;;;;;13.27;12.10;;;16.30;99.90;;;;;;5036539;28;20053;-71
2022/08/24 03:28:19;;;;;;;13.23;12.02;;;16.30;99.90;;;;;;5020781;28;20041;-71
2022/08/24 03:30:45;;;;;;;13.55;12.30;;;16.20;99.90;;;;;;5016793;28;20091;-71
2022/08/24 03:33:11;;;;;;;14.10;12.80;;;16.20;99.90;;;;;;5017873;28;20104;-71
2022/08/24 03:35:37;;;;;;;13.27;12.07;;;16.20;99.90;;;;;;5039882;28;20572;-71
2022/08/24 03:38:03;;;;;;;13.10;11.90;;;16.20;99.90;;;;;;5022425;28;20118;-71
2022/08/24 03:40:31;;;;;;;13.02;11.73;;;16.20;99.90;;;;;;5003210;28;20052;-70
2022/08/24 03:42:58;;;;;;;13.00;11.90;;;16.20;99.90;;;;;;5034152;28;20047;-71
2022/08/24 03:45:24;;;;;;;12.88;11.57;;;16.20;99.90;;;;;;5036069;28;20053;-71
2022/08/24 03:47:49;;;;;;;11.70;10.68;;;16.20;99.90;;;;;;5018768;28;20135;-71
2022/08/24 03:50:16;;;;;;;12.65;11.55;;;16.30;99.90;;;;;;5034668;28;20045;-71
2022/08/24 03:52:41;;;;;;;13.68;12.48;;;16.30;99.90;;;;;;5032144;28;20107;-71
2022/08/24 03:55:08;;;;;;;16.50;14.73;;;16.30;99.90;;;;;;5035618;28;20041;-71
2022/08/24 03:57:34;;;;;;;17.38;15.68;;;16.40;99.90;;;;;;4997557;28;20140;-70
2022/08/24 04:00:00;;;;;;;18.92;17.02;;;16.40;99.90;;;;;;5019483;28;20473;-71
2022/08/24 04:02:26;;;;;;;20.17;18.25;;;16.40;99.90;;;;;;5016188;28;20048;-71
2022/08/24 04:04:52;;;;;;;24.88;22.27;;;16.40;99.90;;;;;;5017754;28;20410;-71
2022/08/24 04:07:18;;;;;;;33.17;28.50;;;16.50;99.90;;;;;;5021169;28;20135;-70
2022/08/24 04:09:44;;;;;;;32.38;28.65;;;16.60;99.90;;;;;;5019495;28;20037;-70
2022/08/24 04:12:09;;;;;;;30.08;26.58;;;16.60;99.90;;;;;;5035843;28;20049;-71
2022/08/24 04:14:35;;;;;;;26.92;24.15;;;16.70;99.90;;;;;;5022345;28;20672;-71
2022/08/24 04:17:02;;;;;;;23.48;20.42;;;16.70;99.90;;;;;;5027548;28;20087;-71
2022/08/24 04:19:27;;;;;;;21.30;19.20;;;16.60;99.90;;;;;;5025569;28;20150;-71
2022/08/24 04:21:56;;;;;;;21.95;19.52;;;16.60;99.90;;;;;;5022859;28;20107;-70
2022/08/24 04:24:21;;;;;;;23.88;21.40;;;16.60;99.90;;;;;;5006517;28;20136;-71
2022/08/24 04:26:47;;;;;;;27.33;24.45;;;16.70;99.90;;;;;;5003870;28;20057;-71
2022/08/24 04:29:15;;;;;;;27.45;24.48;;;16.60;99.90;;;;;;5039353;28;20429;-71
2022/08/24 04:31:42;;;;;;;20.58;18.48;;;16.70;99.90;;;;;;5022856;28;20053;-71
2022/08/24 04:34:08;;;;;;;24.67;22.15;;;16.70;99.90;;;;;;5037977;28;20143;-71
2022/08/24 04:36:34;;;;;;;23.67;20.85;;;16.70;99.90;;;;;;5023926;28;20527;-71
2022/08/24 04:39:00;;;;;;;21.42;19.33;;;16.70;99.90;;;;;;5021519;28;20049;-70
2022/08/24 04:41:27;;;;;;;18.38;16.40;;;16.70;99.90;;;;;;5037885;28;20385;-71
2022/08/24 04:43:53;;;;;;;15.93;14.35;;;16.60;99.90;;;;;;5039739;28;20048;-71
2022/08/24 04:46:19;;;;;;;17.80;16.02;;;16.60;99.90;;;;;;5029379;28;20247;-71
2022/08/24 04:48:47;;;;;;;17.52;15.95;;;16.50;99.90;;;;;;5017684;28;20816;-71
2022/08/24 04:51:16;;;;;;;14.27;12.88;;;16.60;99.90;;;;;;5038174;28;20389;-71
2022/08/24 04:53:43;;;;;;;12.40;11.30;;;16.60;99.90;;;;;;5038122;28;20068;-71
2022/08/24 04:56:11;;;;;;;12.02;11.13;;;16.50;99.90;;;;;;5032993;28;20396;-72
2022/08/24 04:58:38;;;;;;;11.80;10.88;;;16.60;99.90;;;;;;5033330;28;20412;-71
2022/08/24 05:01:25;;;;;;;13.68;12.48;;;16.50;99.90;;;;;;5039593;28;20084;-72
2022/08/24 05:03:52;;;;;;;13.40;12.38;;;16.60;99.90;;;;;;5025229;28;20052;-71
2022/08/24 05:06:24;;;;;;;14.48;13.27;;;16.50;99.90;;;;;;5031592;28;20416;-71
2022/08/24 05:08:50;;;;;;;17.02;15.52;;;16.50;99.90;;;;;;5036108;28;20041;-71
2022/08/24 05:11:17;;;;;;;19.10;17.30;;;16.50;99.90;;;;;;5038796;28;20067;-71
2022/08/24 05:13:44;;;;;;;20.33;18.30;;;16.50;99.90;;;;;;5038718;28;20037;-71
2022/08/24 05:16:14;;;;;;;24.25;19.40;;;16.50;99.90;;;;;;5028663;28;20060;-72
2022/08/24 05:18:41;;;;;;;21.38;19.33;;;16.50;99.90;;;;;;5030788;28;20041;-71
2022/08/24 05:21:08;;;;;;;22.30;19.95;;;16.50;99.90;;;;;;5042499;28;20060;-71
2022/08/24 05:23:35;;;;;;;21.80;19.45;;;16.50;99.90;;;;;;5036756;28;20045;-71
2022/08/24 05:26:25;;;;;;;21.25;19.17;;;16.60;99.90;;;;;;5035189;28;20171;-71
2022/08/24 05:28:56;;;;;;;22.02;19.80;;;16.60;99.90;;;;;;5027545;28;20079;-71
2022/08/24 05:31:24;;;;;;;23.08;19.13;;;16.60;99.90;;;;;;5038877;28;20073;-71
2022/08/24 05:33:50;;;;;;;28.38;23.70;;;16.70;99.90;;;;;;5022848;28;20040;-71
2022/08/24 05:36:24;;;;;;;37.10;30.80;;;16.80;99.90;;;;;;5011085;28;20056;-72
2022/08/24 05:38:52;;;;;;;32.72;29.08;;;16.90;99.90;;;;;;5023772;28;20051;-72
2022/08/24 05:41:19;;;;;;;28.73;24.95;;;17.00;99.90;;;;;;5021556;28;20052;-72
2022/08/24 05:43:45;;;;;;;43.53;36.35;;;17.10;99.90;;;;;;5022001;28;20057;-72
2022/08/24 05:46:11;;;;;;;48.65;39.30;;;17.30;99.90;;;;;;5029710;28;20102;-72
2022/08/24 05:48:37;;;;;;;49.83;39.38;;;17.50;99.90;;;;;;5029841;28;20048;-71
2022/08/24 05:51:04;;;;;;;48.58;39.20;;;17.60;99.90;;;;;;5036063;28;20044;-71
2022/08/24 05:53:30;;;;;;;46.40;38.58;;;17.70;99.90;;;;;;5037841;28;20060;-72
2022/08/24 05:55:56;;;;;;;47.38;37.97;;;17.80;99.90;;;;;;5038993;28;20091;-72
2022/08/24 05:58:21;;;;;;;47.22;37.60;;;17.90;99.90;;;;;;5020688;28;20110;-72
2022/08/24 06:00:49;;;;;;;44.05;37.97;;;18.10;99.90;;;;;;5039205;28;20065;-72
2022/08/24 06:03:15;;;;;;;47.97;37.83;;;18.20;99.90;;;;;;5034694;28;20401;-72
2022/08/24 06:05:43;;;;;;;41.85;36.33;;;18.30;99.90;;;;;;5018743;28;20619;-71
2022/08/24 06:08:09;;;;;;;42.33;35.30;;;18.40;99.90;;;;;;5021507;28;20040;-71
2022/08/24 06:10:43;;;;;;;39.80;33.55;;;18.50;99.90;;;;;;5038169;28;20112;-72
2022/08/24 06:13:10;;;;;;;40.20;33.17;;;18.60;99.90;;;;;;5037062;28;20041;-72
2022/08/24 06:15:37;;;;;;;40.30;33.47;;;18.70;99.90;;;;;;5020433;28;20049;-72
2022/08/24 06:18:04;;;;;;;37.05;33.00;;;18.80;99.90;;;;;;5023065;28;20041;-72
2022/08/24 06:20:31;;;;;;;35.63;31.83;;;18.90;99.90;;;;;;5037473;28;20178;-72
2022/08/24 06:22:57;;;;;;;35.83;31.77;;;19.00;99.90;;;;;;5019016;28;20802;-72
2022/08/24 06:28:07;;;;;;;35.35;31.55;;;19.20;99.90;;;;;;5014936;28;20048;-73
2022/08/24 06:30:33;;;;;;;35.38;30.42;;;19.20;99.90;;;;;;5020924;28;20074;-72
2022/08/24 06:33:01;;;;;;;33.70;29.70;;;19.30;99.90;;;;;;5036181;28;20042;-72
2022/08/24 06:35:26;;;;;;;37.03;30.25;;;19.40;99.90;;;;;;5035826;28;20076;-72
2022/08/24 06:37:53;;;;;;;34.13;30.17;;;19.40;99.90;;;;;;5020027;28;20540;-72
2022/08/24 06:40:19;;;;;;;33.17;29.40;;;19.60;99.90;;;;;;5022973;28;21300;-73
2022/08/24 06:42:45;;;;;;;32.03;28.73;;;19.50;99.90;;;;;;4998141;28;20091;-72
2022/08/24 06:45:11;;;;;;;31.30;27.92;;;19.70;99.90;;;;;;4998995;28;20050;-72
2022/08/24 06:47:37;;;;;;;30.95;27.60;;;19.90;99.90;;;;;;4986230;28;20056;-72
2022/08/24 06:50:05;;;;;;;29.83;26.83;;;20.00;99.90;;;;;;5002906;28;20049;-72
2022/08/24 06:52:31;;;;;;;29.75;26.65;;;20.10;99.90;;;;;;5003906;28;20091;-73
2022/08/24 06:54:57;;;;;;;31.73;28.05;;;20.20;99.90;;;;;;5003251;28;20518;-73
2022/08/24 06:57:23;;;;;;;32.35;28.08;;;20.30;99.90;;;;;;4982757;28;20057;-73
2022/08/24 06:59:48;;;;;;;31.00;27.77;;;20.30;99.90;;;;;;5004410;28;20049;-73
2022/08/24 07:02:17;;;;;;;31.42;27.92;;;20.40;99.90;;;;;;5000358;28;20049;-72
2022/08/24 07:04:43;;;;;;;30.05;26.27;;;20.50;99.90;;;;;;4999331;28;20103;-72
2022/08/24 07:07:09;;;;;;;27.80;24.92;;;20.50;99.90;;;;;;4980118;28;20085;-72
2022/08/24 07:09:35;;;;;;;29.23;24.77;;;20.60;99.90;;;;;;4999491;28;20165;-72
2022/08/24 07:12:00;;;;;;;26.23;23.42;;;20.70;99.90;;;;;;4998359;28;20107;-72
2022/08/24 07:14:27;;;;;;;29.33;23.40;;;20.70;99.90;;;;;;4997959;28;20620;-72
2022/08/24 07:16:53;;;;;;;25.00;22.35;;;20.80;99.90;;;;;;4987151;28;20416;-72
2022/08/24 07:19:18;;;;;;;29.02;23.15;;;21.00;99.90;;;;;;4999576;28;20046;-72
2022/08/24 07:21:44;;;;;;;25.10;22.02;;;21.10;99.90;;;;;;4996962;28;20156;-72
2022/08/24 07:24:10;;;;;;;24.95;20.58;;;21.10;99.90;;;;;;5002315;28;20038;-72
2022/08/24 07:26:37;;;;;;;23.35;20.77;;;21.20;99.90;;;;;;4986384;28;20045;-72
2022/08/24 07:29:09;;;;;;;24.90;20.10;;;21.30;99.90;;;;;;4999477;28;20102;-72
2022/08/24 07:31:37;;;;;;;22.70;18.98;;;21.30;99.90;;;;;;5001254;28;20034;-73
2022/08/24 07:34:05;;;;;;;23.38;17.40;;;21.40;99.90;;;;;;4981012;28;20060;-72
2022/08/24 07:36:31;;;;;;;22.25;16.13;;;21.50;99.90;;;;;;4967609;28;20073;-73
2022/08/24 07:38:56;;;;;;;17.35;15.52;;;21.60;99.90;;;;;;4972603;28;20141;-72
2022/08/24 07:41:24;;;;;;;14.90;13.40;;;21.60;99.90;;;;;;4972929;28;20085;-72
2022/08/24 07:43:51;;;;;;;17.50;13.60;;;21.60;99.90;;;;;;4974997;28;20056;-73
2022/08/24 07:46:16;;;;;;;17.92;14.65;;;21.70;99.90;;;;;;4971152;28;20053;-72
2022/08/24 07:48:42;;;;;;;16.50;13.52;;;21.70;99.90;;;;;;4969501;28;20042;-72
2022/08/24 07:51:13;;;;;;;17.27;14.75;;;21.80;99.90;;;;;;4980672;28;20084;-73
2022/08/24 07:53:40;;;;;;;16.48;13.20;;;21.80;99.90;;;;;;4975828;28;20865;-71
2022/08/24 07:56:06;;;;;;;13.27;11.73;;;22.00;99.90;;;;;;4978031;28;20045;-73
2022/08/24 07:58:33;;;;;;;12.45;11.15;;;22.10;99.90;;;;;;4973076;28;20124;-72
2022/08/24 08:00:59;;;;;;;14.77;11.40;;;22.10;99.90;;;;;;4977890;28;20452;-72
2022/08/24 08:03:28;;;;;;;13.00;11.02;;;22.10;99.90;;;;;;4975273;28;20050;-72
2022/08/24 08:05:58;;;;;;;12.82;10.73;;;22.20;99.90;;;;;;4983995;28;20053;-72
2022/08/24 08:08:25;;;;;;;13.35;11.35;;;22.30;99.90;;;;;;4961920;28;20037;-72
2022/08/24 08:10:51;;;;;;;14.10;11.30;;;22.30;99.90;;;;;;4978160;28;20065;-73
2022/08/24 08:13:17;;;;;;;12.27;10.90;;;22.40;99.90;;;;;;4978909;28;20038;-72
2022/08/24 08:15:44;;;;;;;14.52;9.52;;;22.50;99.90;;;;;;4983711;28;20049;-72
2022/08/24 08:18:11;;;;;;;15.05;10.82;;;22.50;99.90;;;;;;4963613;28;20057;-72
2022/08/24 08:20:38;;;;;;;15.02;11.18;;;22.60;99.90;;;;;;4979744;28;20050;-73
2022/08/24 08:25:51;;;;;;;13.98;8.45;;;22.80;99.90;;;;;;4975742;28;20527;-73
2022/08/24 08:28:18;;;;;;;11.13;9.32;;;22.90;99.90;;;;;;4968298;28;20054;-72
2022/08/24 08:30:44;;;;;;;13.90;11.02;;;23.00;99.90;;;;;;4975392;28;20042;-72
2022/08/24 08:33:11;;;;;;;14.18;10.93;;;23.00;99.90;;;;;;4978497;28;20566;-72
2022/08/24 08:35:37;;;;;;;14.82;9.55;;;23.00;99.90;;;;;;4981923;28;20055;-72
2022/08/24 08:38:05;;;;;;;19.30;10.50;;;23.10;99.90;;;;;;4969729;28;20056;-73
2022/08/24 08:40:42;;;;;;;13.85;10.07;;;23.10;99.90;;;;;;4978555;28;20067;-72
2022/08/24 08:43:41;;;;;;;13.02;8.88;;;23.20;99.90;;;;;;4979448;28;20046;-73
2022/08/24 08:46:07;;;;;;;12.75;9.90;;;23.40;99.90;;;;;;4971692;28;20088;-73
2022/08/24 08:48:53;;;;;;;13.55;10.70;;;23.30;99.90;;;;;;4973336;28;20138;-73
2022/08/24 08:51:25;;;;;;;14.10;9.68;;;23.50;99.90;;;;;;5001897;28;20076;-71
2022/08/24 08:54:19;;;;;;;14.23;9.93;;;23.50;99.90;;;;;;4981761;28;20049;-73
2022/08/24 08:57:02;;;;;;;12.35;9.50;;;23.60;99.90;;;;;;4964394;28;20792;-72
2022/08/24 09:00:08;;;;;;;13.75;8.05;;;23.60;99.90;;;;;;4969614;28;20041;-73
2022/08/24 09:02:37;;;;;;;12.82;9.35;;;23.80;99.90;;;;;;4974098;28;20607;-72
2022/08/24 09:05:21;;;;;;;12.52;8.25;;;24.00;99.90;;;;;;4983923;28;20136;-73
2022/08/24 09:07:55;;;;;;;10.02;7.93;;;24.00;99.90;;;;;;4973009;28;20045;-73
2022/08/24 09:10:35;;;;;;;8.85;6.97;;;24.10;99.90;;;;;;4983221;28;20049;-72
2022/08/24 09:13:28;;;;;;;10.18;7.20;;;24.10;99.90;;;;;;4984124;28;20532;-72
2022/08/24 09:16:03;;;;;;;10.63;6.35;;;24.40;99.90;;;;;;4986282;28;20058;-73
2022/08/24 09:18:40;;;;;;;9.07;5.78;;;24.50;99.90;;;;;;4972132;28;20505;-72
2022/08/24 09:21:40;;;;;;;12.50;7.30;;;24.60;99.90;;;;;;4986227;28;20361;-72
2022/08/24 09:24:40;;;;;;;11.02;6.65;;;24.60;99.90;;;;;;4982717;28;20136;-72
2022/08/24 09:27:28;;;;;;;9.82;5.90;;;24.70;99.90;;;;;;4968842;28;20092;-73
2022/08/24 09:30:10;;;;;;;7.22;5.40;;;24.80;99.90;;;;;;4983454;28;20137;-73
2022/08/24 09:32:57;;;;;;;6.95;4.85;;;24.90;99.90;;;;;;4981317;28;20056;-72
2022/08/24 09:35:52;;;;;;;7.57;4.00;;;24.90;99.90;;;;;;4979098;28;20729;-72
2022/08/24 09:38:57;;;;;;;8.27;3.50;;;25.00;99.90;;;;;;4966747;28;20423;-72
2022/08/24 09:41:30;;;;;;;7.85;4.50;;;25.20;99.90;;;;;;4983377;28;20073;-73
2022/08/24 09:44:21;;;;;;;5.78;4.00;;;25.20;99.90;;;;;;4984522;28;20081;-72
2022/08/24 09:47:11;;;;;;;7.25;4.50;;;25.30;99.90;;;;;;4966957;28;20050;-73
2022/08/24 09:50:09;;;;;;;10.02;5.10;;;25.40;99.90;;;;;;4982635;28;20050;-73
2022/08/24 09:52:56;;;;;;;7.82;3.90;;;25.40;99.90;;;;;;4972575;28;20056;-73
2022/08/24 09:55:42;;;;;;;5.40;3.88;;;25.40;99.90;;;;;;4975615;28;21674;-73
2022/08/24 09:58:17;;;;;;;5.57;3.50;;;25.60;99.90;;;;;;4969997;28;20057;-73
2022/08/24 10:01:10;;;;;;;5.57;3.40;;;25.70;99.90;;;;;;4982656;28;20180;-72
2022/08/24 10:03:47;;;;;;;4.75;2.40;;;25.70;99.90;;;;;;4978908;28;20056;-73
2022/08/24 10:06:35;;;;;;;6.53;3.03;;;25.80;99.90;;;;;;4973411;28;20056;-73
2022/08/24 10:09:25;;;;;;;4.47;2.50;;;25.90;99.90;;;;;;4982437;28;20065;-72
2022/08/24 10:11:59;;;;;;;4.63;2.38;;;26.00;99.90;;;;;;4984336;28;20057;-73
2022/08/24 10:15:06;;;;;;;6.10;2.50;;;26.00;99.90;;;;;;4982566;28;20449;-73
2022/08/24 10:17:48;;;;;;;4.18;2.30;;;26.00;99.90;;;;;;4970346;28;20064;-73
2022/08/24 10:20:41;;;;;;;6.45;2.60;;;26.00;99.90;;;;;;4974125;28;20596;-72
2022/08/24 10:23:31;;;;;;;5.43;2.88;;;26.00;99.90;;;;;;4981677;28;20066;-72
2022/08/24 10:26:03;;;;;;;5.72;2.60;;;26.10;99.90;;;;;;4965020;28;20278;-73
2022/08/24 10:28:35;;;;;;;5.35;2.50;;;26.10;99.90;;;;;;4969423;28;20049;-72
2022/08/24 10:31:04;;;;;;;4.45;2.60;;;26.00;99.90;;;;;;4981139;28;20045;-72
2022/08/24 10:33:33;;;;;;;3.90;1.92;;;26.10;99.90;;;;;;4985906;28;20045;-72
2022/08/24 10:36:25;;;;;;;4.47;2.30;;;26.30;99.90;;;;;;4980401;28;20433;-72
2022/08/24 10:45:30;;;;;;;4.10;1.92;;;26.40;99.90;;;;;;4987403;28;22119;-72
2022/08/24 10:48:26;;;;;;;4.03;1.92;;;26.40;99.90;;;;;;4984640;28;20463;-72
2022/08/24 10:51:15;;;;;;;2.90;2.28;;;26.60;99.90;;;;;;4982750;28;20107;-73
2022/08/24 10:53:50;;;;;;;4.40;2.63;;;26.50;99.90;;;;;;4985424;28;20045;-72
2022/08/24 10:56:34;;;;;;;4.78;2.17;;;26.60;99.90;;;;;;4989970;28;20042;-73
2022/08/24 10:59:22;;;;;;;2.97;1.77;;;26.60;99.90;;;;;;4980060;28;20069;-72
2022/08/24 11:02:03;;;;;;;4.25;2.00;;;26.60;99.90;;;;;;5005547;28;20049;-72
2022/08/24 11:04:32;;;;;;;4.47;2.45;;;26.70;99.90;;;;;;4985071;28;20666;-72
2022/08/24 11:07:24;;;;;;;4.05;2.00;;;26.70;99.90;;;;;;4984337;28;20613;-72
2022/08/24 11:10:00;;;;;;;2.35;1.95;;;26.80;99.90;;;;;;4993174;28;20087;-72
2022/08/24 11:12:35;;;;;;;5.38;1.83;;;26.90;99.90;;;;;;4981619;28;20049;-71
2022/08/24 11:15:16;;;;;;;5.03;1.85;;;27.00;99.90;;;;;;4979284;28;20056;-72
2022/08/24 11:17:55;;;;;;;3.17;2.25;;;27.10;99.90;;;;;;4990261;28;20048;-72
2022/08/24 11:20:32;;;;;;;3.20;2.35;;;27.30;99.90;;;;;;4998796;28;20041;-73
2022/08/24 11:23:04;;;;;;;2.78;2.35;;;27.10;99.90;;;;;;4977480;28;20052;-72
2022/08/24 11:25:33;;;;;;;3.83;1.92;;;27.10;99.90;;;;;;4998940;28;20653;-72
2022/08/24 11:28:42;;;;;;;4.13;1.80;;;27.10;99.90;;;;;;4990896;28;20063;-72
2022/08/24 11:31:46;;;;;;;2.80;1.70;;;27.10;99.90;;;;;;4913458;29;20059;-72
2022/08/24 11:34:50;;;;;;;5.65;1.50;;;27.20;99.90;;;;;;4861654;29;20146;-73
2022/08/24 11:37:20;;;;;;;4.22;1.40;;;27.30;99.90;;;;;;4949579;28;20497;-72
2022/08/24 11:39:46;;;;;;;2.05;1.30;;;27.10;99.90;;;;;;4982147;28;20037;-73
2022/08/24 11:42:45;;;;;;;2.13;0.98;;;27.10;99.90;;;;;;4996554;28;20053;-73
2022/08/24 11:45:25;;;;;;;5.03;1.30;;;27.00;99.90;;;;;;5016603;28;21363;-73
2022/08/24 11:48:15;;;;;;;1.75;1.17;;;27.10;99.90;;;;;;5001862;28;20041;-72
2022/08/24 11:50:55;;;;;;;2.10;0.90;;;27.10;99.90;;;;;;5010764;28;20053;-72
2022/08/24 11:53:26;;;;;;;3.95;1.30;;;27.00;99.90;;;;;;5018774;28;20909;-73
2022/08/24 11:56:06;;;;;;;1.75;0.95;;;27.00;99.90;;;;;;5015605;28;20053;-72
2022/08/24 11:58:57;;;;;;;1.60;0.80;;;27.00;99.90;;;;;;5005557;28;20136;-72
2022/08/24 12:01:46;;;;;;;1.35;0.80;;;27.10;99.90;;;;;;5014942;28;20095;-72
2022/08/24 12:04:38;;;;;;;3.22;0.85;;;27.10;99.90;;;;;;5014781;28;20053;-72
2022/08/24 12:07:46;;;;;;;1.23;0.90;;;27.00;99.90;;;;;;5006533;28;20075;-70
2022/08/24 12:10:45;;;;;;;2.67;1.25;;;27.00;99.90;;;;;;5000433;28;20060;-72
2022/08/24 12:13:43;;;;;;;1.92;1.15;;;27.20;99.90;;;;;;5015193;28;20056;-72
2022/08/24 12:16:20;;;;;;;1.35;1.10;;;27.40;99.90;;;;;;5005288;28;20152;-72
2022/08/24 12:19:00;;;;;;;1.90;1.00;;;27.50;99.90;;;;;;5009679;28;20056;-72
2022/08/24 12:21:31;;;;;;;3.30;1.10;;;27.60;99.90;;;;;;5011287;28;20055;-72
2022/08/24 12:24:11;;;;;;;1.83;1.27;;;27.60;99.90;;;;;;5007965;28;20045;-72
2022/08/24 12:26:44;;;;;;;1.48;1.10;;;27.70;99.90;;;;;;5002057;28;20053;-72
2022/08/24 12:29:21;;;;;;;2.85;1.20;;;27.80;99.90;;;;;;5028895;28;20049;-72
2022/08/24 12:31:58;;;;;;;3.83;1.50;;;27.90;99.90;;;;;;5028204;28;20124;-72
2022/08/24 12:34:45;;;;;;;3.25;1.13;;;27.70;99.90;;;;;;5027684;28;20186;-72
2022/08/24 12:37:20;;;;;;;1.90;0.98;;;27.80;99.90;;;;;;5019160;28;20579;-72
2022/08/24 12:39:49;;;;;;;2.05;0.80;;;27.90;99.90;;;;;;5034164;28;20801;-72
2022/08/24 12:42:31;;;;;;;4.88;0.80;;;28.10;99.90;;;;;;5032076;28;20057;-71
2022/08/24 12:45:00;;;;;;;2.00;1.00;;;28.10;99.90;;;;;;5033891;28;20141;-73
2022/08/24 12:47:37;;;;;;;1.35;0.47;;;28.00;99.90;;;;;;5020817;28;20045;-71
2022/08/24 12:50:52;;;;;;;1.30;0.63;;;28.10;99.90;;;;;;5033062;28;20051;-73
2022/08/24 12:53:54;;;;;;;0.93;0.73;;;28.00;99.90;;;;;;4932636;29;20089;-72
2022/08/24 12:56:35;;;;;;;2.40;0.70;;;28.00;99.90;;;;;;4918820;29;20775;-72
2022/08/24 12:59:20;;;;;;;1.67;0.50;;;27.90;99.90;;;;;;5026314;28;20076;-73
2022/08/24 13:02:00;;;;;;;1.25;0.55;;;27.90;99.90;;;;;;5036272;28;20117;-72
2022/08/24 13:04:47;;;;;;;1.95;0.60;;;28.00;99.90;;;;;;5033341;28;20048;-72
2022/08/24 13:07:38;;;;;;;2.20;1.00;;;28.00;99.90;;;;;;5020858;28;20045;-72
2022/08/24 13:10:10;;;;;;;2.55;1.55;;;28.30;99.90;;;;;;5036352;28;20044;-72
2022/08/24 13:12:45;;;;;;;4.90;2.58;;;28.50;99.90;;;;;;5032164;28;20594;-72
2022/08/24 13:15:27;;;;;;;3.53;2.30;;;28.50;99.90;;;;;;5028013;28;20056;-74
2022/08/24 13:18:06;;;;;;;5.15;2.33;;;28.60;99.90;;;;;;5019854;28;20147;-71